sensor_id;sensor_type;location;lat;lon;timestamp;pressure;altitude;pressure_sealevel;temperature;humidity
49943;BME280;36011;53.362;58.948;2022-10-04T00:01:54;98359.25;;;0.98;61.79
49943;BME280;36011;53.362;58.948;2022-10-04T00:05:11;98366.16;;;0.96;62.09
49943;BME280;36011;53.362;58.948;2022-10-04T00:11:49;98365.34;;;0.88;62.27
49943;BME280;36011;53.362;58.948;2022-10-04T00:15:01;98361.88;;;0.83;62.61
49943;BME280;36011;53.362;58.948;2022-10-04T00:21:15;98363.63;;;0.75;62.44
49943;BME280;36011;53.362;58.948;2022-10-04T00:24:31;98379.16;;;0.78;62.39
49943;BME280;36011;53.362;58.948;2022-10-04T00:27:36;98366.22;;;0.73;63.18
49943;BME280;36011;53.362;58.948;2022-10-04T00:30:40;98372.28;;;0.69;62.86
49943;BME280;36011;53.362;58.948;2022-10-04T00:36:54;98384.38;;;0.65;62.79
49943;BME280;36011;53.362;58.948;2022-10-04T00:40:16;98386.09;;;0.63;62.76
49943;BME280;36011;53.362;58.948;2022-10-04T00:46:39;98395.59;;;0.60;62.92
49943;BME280;36011;53.362;58.948;2022-10-04T00:49:45;98392.13;;;0.56;63.36
49943;BME280;36011;53.362;58.948;2022-10-04T00:52:56;98395.63;;;0.57;63.33
49943;BME280;36011;53.362;58.948;2022-10-04T00:56:01;98392.16;;;0.55;62.81
49943;BME280;36011;53.362;58.948;2022-10-04T01:03:03;98402.53;;;0.52;63.61
49943;BME280;36011;53.362;58.948;2022-10-04T01:06:12;98407.69;;;0.46;62.96
49943;BME280;36011;53.362;58.948;2022-10-04T01:09:20;98389.56;;;0.38;63.28
49943;BME280;36011;53.362;58.948;2022-10-04T01:12:50;98412.88;;;0.46;63.52
49943;BME280;36011;53.362;58.948;2022-10-04T01:15:59;98405.97;;;0.41;63.39
49943;BME280;36011;53.362;58.948;2022-10-04T01:19:35;98404.25;;;0.40;63.74
49943;BME280;36011;53.362;58.948;2022-10-04T01:22:42;98404.25;;;0.31;64.03
49943;BME280;36011;53.362;58.948;2022-10-04T01:25:55;98415.44;;;0.33;64.00
49943;BME280;36011;53.362;58.948;2022-10-04T01:32:11;98424.09;;;0.32;64.17
49943;BME280;36011;53.362;58.948;2022-10-04T01:35:13;98422.34;;;0.28;63.85
49943;BME280;36011;53.362;58.948;2022-10-04T01:38:20;98424.94;;;0.28;63.50
49943;BME280;36011;53.362;58.948;2022-10-04T01:41:28;98435.31;;;0.34;64.03
49943;BME280;36011;53.362;58.948;2022-10-04T01:48:00;98436.19;;;0.32;64.05
49943;BME280;36011;53.362;58.948;2022-10-04T01:51:13;98428.41;;;0.30;64.28
49943;BME280;36011;53.362;58.948;2022-10-04T01:54:24;98429.28;;;0.26;64.42
49943;BME280;36011;53.362;58.948;2022-10-04T01:57:35;98430.97;;;0.24;63.92
49943;BME280;36011;53.362;58.948;2022-10-04T02:00:44;98444.78;;;0.21;63.34
49943;BME280;36011;53.362;58.948;2022-10-04T02:03:58;98437.03;;;0.20;63.82
49943;BME280;36011;53.362;58.948;2022-10-04T02:07:11;98438.75;;;0.18;64.21
49943;BME280;36011;53.362;58.948;2022-10-04T02:10:19;98436.13;;;0.16;64.18
49943;BME280;36011;53.362;58.948;2022-10-04T02:13:27;98442.16;;;0.14;64.59
49943;BME280;36011;53.362;58.948;2022-10-04T02:16:37;98444.78;;;0.12;64.14
49943;BME280;36011;53.362;58.948;2022-10-04T02:19:42;98449.09;;;0.09;63.96
49943;BME280;36011;53.362;58.948;2022-10-04T02:22:54;98447.34;;;0.08;64.51
49943;BME280;36011;53.362;58.948;2022-10-04T02:26:08;98449.09;;;0.09;64.21
49943;BME280;36011;53.362;58.948;2022-10-04T02:29:12;98445.63;;;0.08;63.54
49943;BME280;36011;53.362;58.948;2022-10-04T02:32:13;98455.97;;;0.13;64.41
49943;BME280;36011;53.362;58.948;2022-10-04T02:35:45;98452.56;;;0.20;64.26
49943;BME280;36011;53.362;58.948;2022-10-04T02:38:50;98457.75;;;0.26;64.04
49943;BME280;36011;53.362;58.948;2022-10-04T02:42:07;98458.59;;;0.33;64.45
49943;BME280;36011;53.362;58.948;2022-10-04T02:45:28;98461.22;;;0.40;64.65
49943;BME280;36011;53.362;58.948;2022-10-04T02:51:52;98471.56;;;0.56;64.24
49943;BME280;36011;53.362;58.948;2022-10-04T02:55:15;98478.50;;;0.66;63.82
49943;BME280;36011;53.362;58.948;2022-10-04T02:58:21;98481.06;;;0.67;63.70
49943;BME280;36011;53.362;58.948;2022-10-04T03:01:26;98488.00;;;0.78;63.23
49943;BME280;36011;53.362;58.948;2022-10-04T03:04:36;98488.00;;;0.85;63.50
49943;BME280;36011;53.362;58.948;2022-10-04T03:07:39;98483.66;;;0.90;63.51
49943;BME280;36011;53.362;58.948;2022-10-04T03:10:41;98476.75;;;0.96;63.33
49943;BME280;36011;53.362;58.948;2022-10-04T03:13:45;98485.41;;;1.02;63.64
49943;BME280;36011;53.362;58.948;2022-10-04T03:16:50;98484.53;;;1.11;63.57
49943;BME280;36011;53.362;58.948;2022-10-04T03:19:58;98488.81;;;1.21;63.16
49943;BME280;36011;53.362;58.948;2022-10-04T03:23:05;98475.84;;;1.24;63.67
49943;BME280;36011;53.362;58.948;2022-10-04T03:29:22;98487.03;;;1.48;62.82
49943;BME280;36011;53.362;58.948;2022-10-04T03:32:24;98493.94;;;1.56;63.26
49943;BME280;36011;53.362;58.948;2022-10-04T03:35:31;98490.44;;;1.65;62.75
49943;BME280;36011;53.362;58.948;2022-10-04T03:38:33;98497.31;;;1.75;62.83
49943;BME280;36011;53.362;58.948;2022-10-04T03:41:42;98501.56;;;1.92;63.27
49943;BME280;36011;53.362;58.948;2022-10-04T03:44:50;98492.00;;;2.03;62.84
49943;BME280;36011;53.362;58.948;2022-10-04T03:47:57;98500.59;;;2.16;62.57
49943;BME280;36011;53.362;58.948;2022-10-04T03:51:15;98507.44;;;2.31;62.61
49943;BME280;36011;53.362;58.948;2022-10-04T03:54:21;98516.88;;;2.45;62.50
49943;BME280;36011;53.362;58.948;2022-10-04T03:57:24;98509.00;;;2.56;62.09
49943;BME280;36011;53.362;58.948;2022-10-04T04:00:25;98517.56;;;2.74;62.18
49943;BME280;36011;53.362;58.948;2022-10-04T04:03:41;98515.72;;;2.88;61.89
49943;BME280;36011;53.362;58.948;2022-10-04T04:10:26;98523.16;;;3.28;60.61
49943;BME280;36011;53.362;58.948;2022-10-04T04:20:37;98522.66;;;3.80;58.95
49943;BME280;36011;53.362;58.948;2022-10-04T04:23:52;98533.75;;;3.94;58.77
49943;BME280;36011;53.362;58.948;2022-10-04T04:26:58;98524.91;;;4.08;58.80
49943;BME280;36011;53.362;58.948;2022-10-04T04:30:05;98536.00;;;4.23;58.63
49943;BME280;36011;53.362;58.948;2022-10-04T04:33:11;98531.56;;;4.32;58.30
49943;BME280;36011;53.362;58.948;2022-10-04T04:36:19;98518.53;;;4.30;57.73
49943;BME280;36011;53.362;58.948;2022-10-04T04:39:22;98539.81;;;4.63;57.74
49943;BME280;36011;53.362;58.948;2022-10-04T04:42:45;98542.97;;;4.83;57.08
49943;BME280;36011;53.362;58.948;2022-10-04T04:45:50;98543.72;;;4.91;56.63
49943;BME280;36011;53.362;58.948;2022-10-04T04:49:01;98542.59;;;5.08;55.20
49943;BME280;36011;53.362;58.948;2022-10-04T04:52:03;98538.88;;;5.24;55.10
49943;BME280;36011;53.362;58.948;2022-10-04T04:55:06;98551.69;;;5.38;54.83
49943;BME280;36011;53.362;58.948;2022-10-04T04:58:21;98552.31;;;5.51;54.17
49943;BME280;36011;53.362;58.948;2022-10-04T05:01:38;98554.63;;;5.68;53.38
49943;BME280;36011;53.362;58.948;2022-10-04T05:04:45;98548.31;;;5.79;52.93
49943;BME280;36011;53.362;58.948;2022-10-04T05:08:13;98556.72;;;5.97;52.56
49943;BME280;36011;53.362;58.948;2022-10-04T05:11:18;98556.44;;;6.12;51.92
49943;BME280;36011;53.362;58.948;2022-10-04T05:14:26;98545.78;;;6.21;51.56
49943;BME280;36011;53.362;58.948;2022-10-04T05:17:37;98553.13;;;6.46;51.49
49943;BME280;36011;53.362;58.948;2022-10-04T05:20:48;98559.63;;;6.67;51.05
49943;BME280;36011;53.362;58.948;2022-10-04T05:23:50;98563.56;;;6.85;50.25
49943;BME280;36011;53.362;58.948;2022-10-04T05:27:03;98563.19;;;8.95;47.74
49943;BME280;36011;53.362;58.948;2022-10-04T05:33:37;98577.94;;;21.42;27.79
49943;BME280;36011;53.362;58.948;2022-10-04T05:46:32;98567.72;;;34.28;14.86
49943;BME280;36011;53.362;58.948;2022-10-04T05:49:42;98574.56;;;36.07;13.25
49943;BME280;36011;53.362;58.948;2022-10-04T05:52:49;98574.50;;;37.26;12.27
49943;BME280;36011;53.362;58.948;2022-10-04T05:59:50;98568.78;;;39.36;9.08
49943;BME280;36011;53.362;58.948;2022-10-04T06:06:15;98574.78;;;41.30;8.28
49943;BME280;36011;53.362;58.948;2022-10-04T06:12:54;98583.97;;;44.02;8.67
49943;BME280;36011;53.362;58.948;2022-10-04T06:16:22;98578.63;;;43.07;7.18
49943;BME280;36011;53.362;58.948;2022-10-04T06:22:47;98579.66;;;43.48;5.68
49943;BME280;36011;53.362;58.948;2022-10-04T06:26:17;98577.59;;;43.18;6.04
49943;BME280;36011;53.362;58.948;2022-10-04T06:29:31;98578.09;;;43.10;5.85
49943;BME280;36011;53.362;58.948;2022-10-04T06:43:03;98591.53;;;45.54;5.48
49943;BME280;36011;53.362;58.948;2022-10-04T06:46:33;98587.22;;;45.82;5.70
49943;BME280;36011;53.362;58.948;2022-10-04T06:49:59;98587.00;;;45.68;4.98
49943;BME280;36011;53.362;58.948;2022-10-04T06:57:20;98579.25;;;44.08;5.13
49943;BME280;36011;53.362;58.948;2022-10-04T07:07:28;98578.72;;;43.22;4.28
49943;BME280;36011;53.362;58.948;2022-10-04T07:10:52;98581.16;;;43.92;4.17
49943;BME280;36011;53.362;58.948;2022-10-04T07:14:08;98579.88;;;43.32;3.64
49943;BME280;36011;53.362;58.948;2022-10-04T07:17:20;98570.25;;;42.22;3.72
49943;BME280;36011;53.362;58.948;2022-10-04T07:20:29;98574.34;;;41.87;4.11
49943;BME280;36011;53.362;58.948;2022-10-04T07:23:50;98581.06;;;42.24;3.74
49943;BME280;36011;53.362;58.948;2022-10-04T07:26:57;98578.59;;;41.95;3.53
49943;BME280;36011;53.362;58.948;2022-10-04T07:30:07;98577.38;;;41.15;3.51
49943;BME280;36011;53.362;58.948;2022-10-04T07:33:15;98575.59;;;40.36;3.98
49943;BME280;36011;53.362;58.948;2022-10-04T07:36:25;98575.09;;;40.39;3.85
49943;BME280;36011;53.362;58.948;2022-10-04T07:39:37;98571.03;;;39.96;3.77
49943;BME280;36011;53.362;58.948;2022-10-04T07:42:45;98566.22;;;40.03;3.86
49943;BME280;36011;53.362;58.948;2022-10-04T07:45:48;98570.47;;;40.11;3.61
49943;BME280;36011;53.362;58.948;2022-10-04T07:48:54;98560.38;;;39.42;4.17
49943;BME280;36011;53.362;58.948;2022-10-04T07:55:39;98569.63;;;42.15;3.85
49943;BME280;36011;53.362;58.948;2022-10-04T08:05:38;98564.56;;;40.19;3.82
49943;BME280;36011;53.362;58.948;2022-10-04T08:16:01;98559.78;;;39.28;4.16
49943;BME280;36011;53.362;58.948;2022-10-04T08:29:46;98557.44;;;38.26;4.08
49943;BME280;36011;53.362;58.948;2022-10-04T08:33:16;98548.69;;;36.53;5.16
49943;BME280;36011;53.362;58.948;2022-10-04T08:48:02;98553.22;;;38.00;4.68
49943;BME280;36011;53.362;58.948;2022-10-04T08:51:04;98548.38;;;38.37;4.92
49943;BME280;36011;53.362;58.948;2022-10-04T08:57:52;98539.81;;;36.01;5.79
49943;BME280;36011;53.362;58.948;2022-10-04T09:32:20;98535.72;;;33.07;6.75
49943;BME280;36011;53.362;58.948;2022-10-04T09:35:59;98529.88;;;33.98;6.08
49943;BME280;36011;53.362;58.948;2022-10-04T09:52:47;98546.75;;;34.09;6.29
49943;BME280;36011;53.362;58.948;2022-10-04T09:59:28;98538.66;;;32.71;7.03
49943;BME280;36011;53.362;58.948;2022-10-04T10:10:00;98531.94;;;33.02;6.70
49943;BME280;36011;53.362;58.948;2022-10-04T10:32:42;98539.69;;;31.71;7.35
49943;BME280;36011;53.362;58.948;2022-10-04T10:39:11;98521.50;;;28.77;8.81
49943;BME280;36011;53.362;58.948;2022-10-04T10:52:48;98522.59;;;27.45;10.03
49943;BME280;36011;53.362;58.948;2022-10-04T11:03:18;98519.78;;;27.04;10.20
49943;BME280;36011;53.362;58.948;2022-10-04T11:30:59;98515.41;;;25.90;10.93
49943;BME280;36011;53.362;58.948;2022-10-04T11:38:46;98522.75;;;24.42;11.82
49943;BME280;36011;53.362;58.948;2022-10-04T11:45:16;98523.75;;;23.74;12.51
49943;BME280;36011;53.362;58.948;2022-10-04T11:48:32;98529.94;;;23.46;12.49
49943;BME280;36011;53.362;58.948;2022-10-04T11:58:51;98525.94;;;22.40;13.38
49943;BME280;36011;53.362;58.948;2022-10-04T12:09:22;98536.59;;;21.24;14.31
49943;BME280;36011;53.362;58.948;2022-10-04T12:20:21;98539.63;;;20.07;15.33
49943;BME280;36011;53.362;58.948;2022-10-04T12:30:27;98529.88;;;19.59;15.71
49943;BME280;36011;53.362;58.948;2022-10-04T12:47:44;98515.34;;;15.82;18.96
49943;BME280;36011;53.362;58.948;2022-10-04T12:51:10;98519.34;;;15.29;19.75
49943;BME280;36011;53.362;58.948;2022-10-04T13:00:46;98523.59;;;14.36;20.88
49943;BME280;36011;53.362;58.948;2022-10-04T13:14:28;98522.69;;;13.34;22.35
49943;BME280;36011;53.362;58.948;2022-10-04T13:21:05;98533.19;;;12.80;22.99
49943;BME280;36011;53.362;58.948;2022-10-04T13:27:15;98535.84;;;12.43;23.19
49943;BME280;36011;53.362;58.948;2022-10-04T13:30:27;98531.75;;;12.35;23.50
49943;BME280;36011;53.362;58.948;2022-10-04T13:34:02;98547.69;;;12.13;23.62
49943;BME280;36011;53.362;58.948;2022-10-04T13:50:27;98546.06;;;11.28;25.01
49943;BME280;36011;53.362;58.948;2022-10-04T13:57:49;98554.50;;;11.14;25.24
49943;BME280;36011;53.362;58.948;2022-10-04T14:14:53;98550.94;;;10.71;26.04
49943;BME280;36011;53.362;58.948;2022-10-04T14:25:24;98549.06;;;10.51;26.49
49943;BME280;36011;53.362;58.948;2022-10-04T14:35:19;98550.28;;;9.94;27.88
49943;BME280;36011;53.362;58.948;2022-10-04T14:45:35;98554.66;;;9.41;29.91
49943;BME280;36011;53.362;58.948;2022-10-04T15:11:59;98558.38;;;8.81;33.27
49943;BME280;36011;53.362;58.948;2022-10-04T15:21:45;98553.94;;;8.83;33.53
49943;BME280;36011;53.362;58.948;2022-10-04T15:24:54;98566.78;;;8.63;34.09
49943;BME280;36011;53.362;58.948;2022-10-04T15:27:56;98571.13;;;8.64;33.01
49943;BME280;36011;53.362;58.948;2022-10-04T15:31:04;98556.91;;;8.71;32.25
49943;BME280;36011;53.362;58.948;2022-10-04T15:48:24;98571.38;;;8.54;32.05
49943;BME280;36011;53.362;58.948;2022-10-04T15:58:42;98573.81;;;8.31;32.51
49943;BME280;36011;53.362;58.948;2022-10-04T16:02:08;98574.56;;;8.35;32.77
49943;BME280;36011;53.362;58.948;2022-10-04T16:12:51;98576.22;;;8.07;33.72
49943;BME280;36011;53.362;58.948;2022-10-04T16:22:33;98588.06;;;7.55;36.00
49943;BME280;36011;53.362;58.948;2022-10-04T16:25:38;98573.50;;;7.45;36.99
49943;BME280;36011;53.362;58.948;2022-10-04T16:32:28;98572.56;;;7.46;35.74
49943;BME280;36011;53.362;58.948;2022-10-04T16:38:51;98576.34;;;6.98;39.05
49943;BME280;36011;53.362;58.948;2022-10-04T16:42:12;98575.25;;;6.70;38.93
49943;BME280;36011;53.362;58.948;2022-10-04T16:49:14;98591.53;;;6.42;38.56
49943;BME280;36011;53.362;58.948;2022-10-04T16:55:54;98587.88;;;6.90;36.30
49943;BME280;36011;53.362;58.948;2022-10-04T16:59:12;98580.44;;;7.10;37.06
49943;BME280;36011;53.362;58.948;2022-10-04T17:02:39;98597.63;;;6.83;37.06
49943;BME280;36011;53.362;58.948;2022-10-04T17:06:22;98598.94;;;6.62;37.99
49943;BME280;36011;53.362;58.948;2022-10-04T17:16:47;98601.22;;;5.91;41.19
49943;BME280;36011;53.362;58.948;2022-10-04T17:20:03;98597.22;;;5.71;41.90
49943;BME280;36011;53.362;58.948;2022-10-04T17:23:37;98601.44;;;6.26;43.33
49943;BME280;36011;53.362;58.948;2022-10-04T17:27:14;98597.94;;;5.81;43.28
49943;BME280;36011;53.362;58.948;2022-10-04T17:30:29;98588.72;;;5.60;41.63
49943;BME280;36011;53.362;58.948;2022-10-04T17:45:02;98590.47;;;6.07;39.96
49943;BME280;36011;53.362;58.948;2022-10-04T17:47:41;98588.78;;;6.05;40.36
49943;BME280;36011;53.362;58.948;2022-10-04T17:51:37;98586.75;;;5.71;42.08
49943;BME280;36011;53.362;58.948;2022-10-04T17:55:02;98593.81;;;5.66;40.94
49943;BME280;36011;53.362;58.948;2022-10-04T17:58:18;98603.72;;;5.47;42.09
49943;BME280;36011;53.362;58.948;2022-10-04T18:01:34;98607.88;;;5.59;40.14
49943;BME280;36011;53.362;58.948;2022-10-04T18:04:46;98597.56;;;5.51;40.62
49943;BME280;36011;53.362;58.948;2022-10-04T18:14:48;98606.69;;;5.27;41.26
49943;BME280;36011;53.362;58.948;2022-10-04T18:21:27;98600.00;;;5.62;39.93
49943;BME280;36011;53.362;58.948;2022-10-04T18:24:29;98606.31;;;5.49;40.91
49943;BME280;36011;53.362;58.948;2022-10-04T18:27:31;98603.00;;;5.37;41.55
49943;BME280;36011;53.362;58.948;2022-10-04T18:33:48;98614.91;;;4.98;43.81
49943;BME280;36011;53.362;58.948;2022-10-04T18:37:20;98606.56;;;4.75;44.70
49943;BME280;36011;53.362;58.948;2022-10-04T18:40:39;98600.72;;;4.56;45.04
49943;BME280;36011;53.362;58.948;2022-10-04T18:44:04;98602.59;;;4.44;45.76
49943;BME280;36011;53.362;58.948;2022-10-04T18:47:23;98606.38;;;4.22;46.32
49943;BME280;36011;53.362;58.948;2022-10-04T18:50:39;98605.75;;;4.00;46.61
49943;BME280;36011;53.362;58.948;2022-10-04T18:57:31;98602.53;;;3.73;47.07
49943;BME280;36011;53.362;58.948;2022-10-04T19:00:40;98610.50;;;3.59;47.52
49943;BME280;36011;53.362;58.948;2022-10-04T19:04:14;98601.03;;;3.48;47.67
49943;BME280;36011;53.362;58.948;2022-10-04T19:10:46;98605.47;;;3.38;48.31
49943;BME280;36011;53.362;58.948;2022-10-04T19:23:58;98612.63;;;3.14;48.94
49943;BME280;36011;53.362;58.948;2022-10-04T19:27:08;98619.59;;;3.09;48.76
49943;BME280;36011;53.362;58.948;2022-10-04T19:30:19;98604.00;;;3.06;49.19
49943;BME280;36011;53.362;58.948;2022-10-04T19:33:31;98610.91;;;3.07;48.92
49943;BME280;36011;53.362;58.948;2022-10-04T19:36:51;98607.41;;;3.14;48.60
49943;BME280;36011;53.362;58.948;2022-10-04T19:43:13;98599.59;;;3.13;48.60
49943;BME280;36011;53.362;58.948;2022-10-04T19:50:17;98616.97;;;3.09;48.85
49943;BME280;36011;53.362;58.948;2022-10-04T19:53:25;98610.16;;;2.95;49.28
49943;BME280;36011;53.362;58.948;2022-10-04T19:56:33;98612.81;;;2.84;49.23
49943;BME280;36011;53.362;58.948;2022-10-04T19:59:39;98612.00;;;2.73;49.74
49943;BME280;36011;53.362;58.948;2022-10-04T20:02:43;98612.06;;;2.65;49.63
49943;BME280;36011;53.362;58.948;2022-10-04T20:05:52;98619.88;;;2.59;50.20
49943;BME280;36011;53.362;58.948;2022-10-04T20:08:55;98618.19;;;2.53;50.34
49943;BME280;36011;53.362;58.948;2022-10-04T20:11:58;98612.16;;;2.46;50.55
49943;BME280;36011;53.362;58.948;2022-10-04T20:21:35;98611.34;;;2.28;51.00
49943;BME280;36011;53.362;58.948;2022-10-04T20:30:51;98617.38;;;2.34;50.65
49943;BME280;36011;53.362;58.948;2022-10-04T20:34:21;98614.81;;;2.33;51.00
49943;BME280;36011;53.362;58.948;2022-10-04T20:40:57;98607.91;;;2.24;50.66
49943;BME280;36011;53.362;58.948;2022-10-04T20:44:01;98620.03;;;2.30;50.60
49943;BME280;36011;53.362;58.948;2022-10-04T20:47:03;98619.13;;;2.29;51.16
49943;BME280;36011;53.362;58.948;2022-10-04T20:50:35;98599.25;;;2.20;50.86
49943;BME280;36011;53.362;58.948;2022-10-04T20:53:42;98618.28;;;2.29;51.06
49943;BME280;36011;53.362;58.948;2022-10-04T20:56:48;98618.28;;;2.29;50.97
49943;BME280;36011;53.362;58.948;2022-10-04T20:59:53;98619.16;;;2.28;51.39
49943;BME280;36011;53.362;58.948;2022-10-04T21:03:17;98619.16;;;2.28;51.62
49943;BME280;36011;53.362;58.948;2022-10-04T21:06:21;98623.50;;;2.22;51.28
49943;BME280;36011;53.362;58.948;2022-10-04T21:09:24;98614.00;;;2.18;51.06
49943;BME280;36011;53.362;58.948;2022-10-04T21:15:53;98630.41;;;2.30;51.43
49943;BME280;36011;53.362;58.948;2022-10-04T21:22:42;98639.06;;;2.22;51.14
49943;BME280;36011;53.362;58.948;2022-10-04T21:25:46;98639.94;;;2.24;51.42
49943;BME280;36011;53.362;58.948;2022-10-04T21:29:08;98623.47;;;2.29;51.47
49943;BME280;36011;53.362;58.948;2022-10-04T21:32:15;98621.75;;;2.28;50.67
49943;BME280;36011;53.362;58.948;2022-10-04T21:35:18;98626.91;;;2.34;51.13
49943;BME280;36011;53.362;58.948;2022-10-04T21:38:25;98623.44;;;2.35;50.98
49943;BME280;36011;53.362;58.948;2022-10-04T21:41:26;98630.41;;;2.33;51.33
49943;BME280;36011;53.362;58.948;2022-10-04T21:44:30;98628.66;;;2.32;51.00
49943;BME280;36011;53.362;58.948;2022-10-04T21:47:34;98631.28;;;2.30;51.25
49943;BME280;36011;53.362;58.948;2022-10-04T21:50:40;98634.72;;;2.29;51.65
49943;BME280;36011;53.362;58.948;2022-10-04T21:53:46;98640.81;;;2.30;51.56
49943;BME280;36011;53.362;58.948;2022-10-04T21:56:50;98639.94;;;2.28;51.82
49943;BME280;36011;53.362;58.948;2022-10-04T21:59:53;98645.09;;;2.29;51.34
49943;BME280;36011;53.362;58.948;2022-10-04T22:02:58;98642.53;;;2.28;51.51
49943;BME280;36011;53.362;58.948;2022-10-04T22:06:02;98632.13;;;2.28;51.89
49943;BME280;36011;53.362;58.948;2022-10-04T22:09:10;98634.72;;;2.26;52.17
49943;BME280;36011;53.362;58.948;2022-10-04T22:12:14;98632.19;;;2.18;52.13
49943;BME280;36011;53.362;58.948;2022-10-04T22:15:20;98627.84;;;2.14;52.30
49943;BME280;36011;53.362;58.948;2022-10-04T22:18:26;98620.09;;;2.10;52.19
49943;BME280;36011;53.362;58.948;2022-10-04T22:21:32;98637.38;;;2.12;52.40
49943;BME280;36011;53.362;58.948;2022-10-04T22:24:36;98639.13;;;2.07;52.60
49943;BME280;36011;53.362;58.948;2022-10-04T22:27:44;98629.63;;;2.05;52.93
49943;BME280;36011;53.362;58.948;2022-10-04T22:30:45;98630.50;;;2.02;52.61
49943;BME280;36011;53.362;58.948;2022-10-04T22:33:52;98635.69;;;1.96;53.11
49943;BME280;36011;53.362;58.948;2022-10-04T22:36:56;98635.69;;;1.91;52.96
49943;BME280;36011;53.362;58.948;2022-10-04T22:39:59;98629.63;;;1.89;52.94
49943;BME280;36011;53.362;58.948;2022-10-04T22:43:01;98626.19;;;1.90;52.65
49943;BME280;36011;53.362;58.948;2022-10-04T22:46:15;98632.22;;;1.97;53.16
49943;BME280;36011;53.362;58.948;2022-10-04T22:49:37;98636.53;;;2.07;52.78
49943;BME280;36011;53.362;58.948;2022-10-04T22:52:43;98650.38;;;2.11;52.66
49943;BME280;36011;53.362;58.948;2022-10-04T22:55:48;98640.84;;;2.16;52.43
49943;BME280;36011;53.362;58.948;2022-10-04T22:59:01;98635.63;;;2.17;52.71
49943;BME280;36011;53.362;58.948;2022-10-04T23:02:09;98648.59;;;2.23;51.52
49943;BME280;36011;53.362;58.948;2022-10-04T23:05:17;98651.19;;;2.33;51.53
49943;BME280;36011;53.362;58.948;2022-10-04T23:08:19;98648.53;;;2.37;50.81
49943;BME280;36011;53.362;58.948;2022-10-04T23:11:22;98645.94;;;2.39;50.48
49943;BME280;36011;53.362;58.948;2022-10-04T23:14:24;98652.03;;;2.41;50.41
49943;BME280;36011;53.362;58.948;2022-10-04T23:17:28;98643.22;;;2.65;49.09
49943;BME280;36011;53.362;58.948;2022-10-04T23:20:32;98640.75;;;2.42;49.37
49943;BME280;36011;53.362;58.948;2022-10-04T23:23:33;98640.78;;;2.33;49.79
49943;BME280;36011;53.362;58.948;2022-10-04T23:26:39;98639.03;;;2.38;49.42
49943;BME280;36011;53.362;58.948;2022-10-04T23:29:41;98624.34;;;2.28;49.51
49943;BME280;36011;53.362;58.948;2022-10-04T23:32:49;98624.41;;;2.15;50.33
49943;BME280;36011;53.362;58.948;2022-10-04T23:35:54;98627.03;;;1.97;50.40
49943;BME280;36011;53.362;58.948;2022-10-04T23:39:00;98636.53;;;2.06;50.20
49943;BME280;36011;53.362;58.948;2022-10-04T23:42:27;98633.13;;;1.93;50.77
49943;BME280;36011;53.362;58.948;2022-10-04T23:45:34;98633.13;;;1.64;51.69
49943;BME280;36011;53.362;58.948;2022-10-04T23:48:43;98642.69;;;1.48;52.32
49943;BME280;36011;53.362;58.948;2022-10-04T23:51:47;98637.47;;;1.26;52.64
49943;BME280;36011;53.362;58.948;2022-10-04T23:54:53;98644.38;;;1.06;53.85
49943;BME280;36011;53.362;58.948;2022-10-04T23:57:55;98640.03;;;0.91;53.96
